Time;durP1;ratioP1;P1;durP2;ratioP2;P2;SDS_P1;SDS_P2;PMS_P1;PMS_P2;Temp;Humidity;BMP_temperature;BMP_pressure;BME280_temperature;BME280_humidity;BME280_pressure;Samples;Min_cycle;Max_cycle;Signal;HPM_P1;HPM_P2
2021/12/14 00:01:15;;;;;;;;;5.00;5.00;;;;;20.85;37.33;102258.50;5039191;28;45318;-54
2021/12/14 00:03:43;;;;;;;;;3.00;3.00;;;;;20.85;37.34;102271.69;5057266;28;45294;-57
2021/12/14 00:06:10;;;;;;;;;5.50;5.50;;;;;20.84;37.40;102270.78;5057296;28;45311;-55
2021/12/14 00:08:47;;;;;;;;;9.00;5.00;;;;;20.82;37.63;102254.19;5057213;28;45430;-53
2021/12/14 00:11:52;;;;;;;;;3.00;3.00;;;;;20.81;37.37;102251.59;5039459;28;45321;-57
2021/12/14 00:16:51;;;;;;;;;5.00;5.00;;;;;20.79;37.70;102242.88;5025485;28;45915;-54
2021/12/14 00:19:17;;;;;;;;;6.25;5.25;;;;;20.79;37.78;102243.75;5056898;28;45529;-57
2021/12/14 00:21:49;;;;;;;;;5.50;4.75;;;;;20.78;38.00;102243.81;5039459;28;45295;-50
2021/12/14 00:24:16;;;;;;;;;5.25;4.00;;;;;20.77;37.71;102247.38;5056674;28;46121;-50
2021/12/14 00:26:49;;;;;;;;;6.25;5.25;;;;;20.76;37.18;102264.09;5039069;28;45308;-47
2021/12/14 00:29:37;;;;;;;;;5.00;5.00;;;;;20.76;37.71;102269.34;5056682;28;45407;-48
2021/12/14 00:32:09;;;;;;;;;5.00;5.00;;;;;20.74;37.58;102260.59;5057064;28;45331;-53
2021/12/14 00:34:39;;;;;;;;;4.50;4.50;;;;;20.73;37.69;102250.97;5056812;28;45673;-55
2021/12/14 00:37:07;;;;;;;;;7.00;5.00;;;;;20.73;37.81;102243.06;5056694;28;45264;-51
2021/12/14 00:39:33;;;;;;;;;5.00;5.00;;;;;20.70;37.72;102237.00;5056818;28;45416;-53
2021/12/14 00:41:59;;;;;;;;;5.00;4.00;;;;;20.72;37.72;102233.44;5038838;28;45323;-52
2021/12/14 00:44:25;;;;;;;;;0.00;0.00;;;;;20.72;37.59;102238.72;5056506;28;45589;-53
2021/12/14 00:46:51;;;;;;;;;4.25;4.25;;;;;20.71;37.38;102251.03;5056500;28;45472;-54
2021/12/14 00:49:17;;;;;;;;;4.50;4.50;;;;;20.70;37.42;102249.31;5038602;28;45262;-53
2021/12/14 00:51:42;;;;;;;;;5.50;4.25;;;;;20.68;37.46;102241.44;5056852;28;45251;-54
2021/12/14 00:54:12;;;;;;;;;4.75;3.25;;;;;20.68;37.41;102236.16;5056349;28;46428;-48
2021/12/14 00:56:39;;;;;;;;;5.25;5.25;;;;;20.67;37.48;102226.53;5056273;28;45497;-48
2021/12/14 00:59:07;;;;;;;;;5.25;5.25;;;;;20.68;37.22;102225.63;5056451;28;45434;-45
2021/12/14 01:01:39;;;;;;;;;4.00;4.00;;;;;20.67;37.29;102237.09;5056566;28;45220;-49
2021/12/14 01:04:11;;;;;;;;;4.00;4.00;;;;;20.65;37.65;102238.94;5056278;28;47316;-44
2021/12/14 01:06:44;;;;;;;;;4.25;4.00;;;;;20.67;37.88;102250.25;5056404;28;45990;-49
2021/12/14 01:09:10;;;;;;;;;5.00;3.75;;;;;20.65;37.78;102241.56;5059362;28;45241;-48
2021/12/14 01:11:41;;;;;;;;;4.25;4.25;;;;;20.60;37.60;102242.63;5060011;28;45634;-54
2021/12/14 01:14:22;;;;;;;;;5.50;3.00;;;;;20.64;37.23;102250.38;5042610;28;46339;-53
2021/12/14 01:17:06;;;;;;;;;5.00;3.25;;;;;20.64;37.51;102255.66;5059640;28;45353;-54
2021/12/14 01:19:33;;;;;;;;;4.25;4.00;;;;;20.63;37.37;102259.19;5059724;28;45348;-55
2021/12/14 01:22:18;;;;;;;;;4.50;4.50;;;;;20.63;37.32;102253.91;5060033;28;45293;-53
2021/12/14 01:27:33;;;;;;;;;4.00;4.00;;;;;20.62;37.75;102275.03;5059552;28;45783;-50
2021/12/14 01:30:03;;;;;;;;;4.00;4.00;;;;;20.61;37.73;102275.97;5059553;28;45273;-53
2021/12/14 01:32:31;;;;;;;;;3.25;3.25;;;;;20.62;37.75;102267.13;5059626;28;45455;-54
2021/12/14 01:34:56;;;;;;;;;4.00;2.50;;;;;20.60;37.60;102276.88;5041166;28;46519;-57
2021/12/14 01:37:26;;;;;;;;;3.00;3.00;;;;;20.60;37.25;102290.91;5059471;28;45366;-56
2021/12/14 01:40:05;;;;;;;;;4.00;3.00;;;;;20.58;37.42;102287.44;5059552;28;45236;-55
2021/12/14 01:42:36;;;;;;;;;4.00;4.00;;;;;20.59;37.48;102291.81;5059364;28;45471;-55
2021/12/14 01:45:09;;;;;;;;;3.25;3.25;;;;;20.56;37.80;102302.44;5059298;28;45495;-54
2021/12/14 01:47:42;;;;;;;;;4.00;3.00;;;;;20.55;37.82;102304.22;5041963;28;45253;-52
2021/12/14 01:50:17;;;;;;;;;4.00;4.00;;;;;20.55;37.83;102304.22;5059284;28;45246;-56
2021/12/14 01:52:43;;;;;;;;;3.25;3.25;;;;;20.56;37.70;102305.06;5059318;28;45317;-52
2021/12/14 01:55:17;;;;;;;;;4.25;4.25;;;;;20.54;37.46;102307.75;5058844;28;45521;-56
2021/12/14 01:57:43;;;;;;;;;6.75;4.50;;;;;20.55;37.24;102309.47;5059376;28;45845;-54
2021/12/14 02:00:14;;;;;;;;;3.25;3.25;;;;;20.54;37.49;102306.91;5059058;28;45339;-56
2021/12/14 02:02:42;;;;;;;;;5.00;3.50;;;;;20.54;37.83;102317.44;5059210;28;45339;-56
2021/12/14 02:05:18;;;;;;;;;5.75;4.25;;;;;20.53;37.70;102319.19;5058841;28;45684;-57
2021/12/14 02:07:44;;;;;;;;;4.00;3.00;;;;;20.53;37.52;102332.38;5059071;28;45696;-56
2021/12/14 02:10:16;;;;;;;;;2.75;2.50;;;;;20.52;37.46;102337.69;5041071;28;45409;-57
2021/12/14 02:12:43;;;;;;;;;2.50;2.50;;;;;20.51;37.89;102343.88;5041141;28;45306;-57
2021/12/14 02:15:14;;;;;;;;;3.50;3.50;;;;;20.52;37.45;102345.59;5058442;28;45428;-52
2021/12/14 02:17:40;;;;;;;;;3.00;2.00;;;;;20.52;37.86;102361.41;5058771;28;46003;-52
2021/12/14 02:20:09;;;;;;;;;2.75;2.75;;;;;20.51;37.56;102364.94;5058170;28;45393;-52
2021/12/14 02:22:34;;;;;;;;;4.00;3.00;;;;;20.49;37.65;102359.72;5058887;28;45245;-52
2021/12/14 02:25:00;;;;;;;;;3.25;3.25;;;;;20.51;37.59;102362.31;5058609;28;46497;-51
2021/12/14 02:27:39;;;;;;;;;2.00;2.00;;;;;20.48;37.21;102349.22;5058756;28;45287;-49
2021/12/14 02:30:12;;;;;;;;;2.75;2.25;;;;;20.50;37.32;102347.41;5058873;28;45398;-47
2021/12/14 02:32:37;;;;;;;;;3.00;3.00;;;;;20.50;37.77;102335.13;5059159;28;45536;-49
2021/12/14 02:35:06;;;;;;;;;3.00;3.00;;;;;20.53;37.54;102326.25;5058566;28;46267;-47
2021/12/14 02:38:00;;;;;;;;;2.25;2.25;;;;;20.53;37.89;102310.44;5058674;28;45350;-49
2021/12/14 02:40:53;;;;;;;;;2.25;2.00;;;;;20.59;37.96;102294.44;5051132;28;45364;-49
2021/12/14 02:43:31;;;;;;;;;3.75;2.50;;;;;20.63;38.12;102292.56;5043471;28;45308;-48
2021/12/14 02:46:19;;;;;;;;;1.00;1.00;;;;;20.68;38.13;102304.66;5058522;28;46315;-54
2021/12/14 02:48:54;;;;;;;;;2.00;2.00;;;;;20.72;37.87;102307.22;5058481;28;45706;-56
2021/12/14 02:51:24;;;;;;;;;2.00;2.00;;;;;20.77;37.97;102314.09;5058784;28;45348;-55
2021/12/14 02:53:53;;;;;;;;;2.50;2.50;;;;;20.81;37.38;102309.56;5058972;28;45323;-53
2021/12/14 02:56:23;;;;;;;;;3.00;3.00;;;;;20.84;37.80;102304.22;5058423;28;45285;-57
2021/12/14 02:58:54;;;;;;;;;4.00;4.00;;;;;20.87;37.40;102304.13;5058562;28;45327;-57
2021/12/14 03:01:20;;;;;;;;;1.50;1.25;;;;;20.92;37.76;102317.97;5058551;28;45251;-54
2021/12/14 03:03:46;;;;;;;;;1.00;1.00;;;;;20.96;37.91;102311.72;5058378;28;45540;-52
2021/12/14 03:06:18;;;;;;;;;2.00;2.00;;;;;20.98;37.56;102296.72;5058077;28;46168;-56
2021/12/14 03:08:56;;;;;;;;;2.00;2.00;;;;;21.00;37.78;102294.84;5058019;28;45746;-56
2021/12/14 03:11:21;;;;;;;;;1.75;1.50;;;;;21.06;37.46;102292.94;5058375;28;45261;-54
2021/12/14 03:13:51;;;;;;;;;2.50;2.50;;;;;21.06;37.38;102285.88;5058264;28;45336;-55
2021/12/14 03:16:24;;;;;;;;;4.00;2.25;;;;;21.08;37.10;102284.06;5057700;28;46167;-52
2021/12/14 03:18:52;;;;;;;;;2.00;2.00;;;;;21.10;37.30;102276.97;5058130;28;45772;-55
2021/12/14 03:21:22;;;;;;;;;3.00;3.00;;;;;21.12;37.29;102266.34;5057938;28;45393;-47
2021/12/14 03:23:51;;;;;;;;;3.00;3.00;;;;;21.11;37.17;102280.47;5058001;28;45565;-50
2021/12/14 03:26:22;;;;;;;;;2.00;2.00;;;;;21.13;37.29;102284.75;5057714;28;47607;-51
2021/12/14 03:28:52;;;;;;;;;3.50;2.25;;;;;21.14;37.28;102281.22;5057577;28;45240;-56
2021/12/14 03:31:49;;;;;;;;;4.25;3.50;;;;;21.14;37.25;102270.69;5056809;28;45369;-56
2021/12/14 03:34:36;;;;;;;;;4.00;3.25;;;;;21.15;37.15;102288.22;5039217;28;45348;-57
2021/12/14 03:37:10;;;;;;;;;3.00;2.00;;;;;21.16;37.14;102283.78;5057577;28;46692;-53
2021/12/14 03:39:40;;;;;;;;;2.50;2.50;;;;;21.12;36.83;102272.50;5057614;28;45326;-57
2021/12/14 03:42:25;;;;;;;;;1.00;1.00;;;;;21.15;37.38;102263.59;5057612;28;45334;-51
2021/12/14 03:44:54;;;;;;;;;2.25;2.00;;;;;21.14;36.88;102259.25;5058115;28;45423;-55
2021/12/14 03:47:26;;;;;;;;;2.25;2.25;;;;;21.16;37.05;102257.41;5057632;28;45550;-54
2021/12/14 03:49:59;;;;;;;;;2.50;2.50;;;;;21.15;37.20;102253.94;5057536;28;45850;-55
2021/12/14 03:52:31;;;;;;;;;3.00;3.00;;;;;21.14;37.20;102264.53;5057768;28;45453;-57
2021/12/14 03:54:58;;;;;;;;;2.50;2.00;;;;;21.14;37.12;102269.78;5056261;28;45621;-54
2021/12/14 03:57:24;;;;;;;;;2.00;2.00;;;;;21.13;37.27;102275.97;5057411;28;45718;-53
2021/12/14 03:59:50;;;;;;;;;3.50;3.00;;;;;21.13;37.10;102260.16;5057141;28;45380;-53
2021/12/14 04:02:17;;;;;;;;;3.50;3.00;;;;;21.12;37.20;102263.72;5057346;28;45481;-52
2021/12/14 04:04:52;;;;;;;;;2.50;2.50;;;;;21.11;36.85;102252.31;5057478;28;45451;-56
2021/12/14 04:07:20;;;;;;;;;1.50;1.50;;;;;21.11;37.28;102246.19;5057116;28;45524;-56
2021/12/14 04:09:46;;;;;;;;;3.25;3.25;;;;;21.11;37.02;102244.41;5056923;28;46026;-56
2021/12/14 04:12:17;;;;;;;;;3.00;2.00;;;;;21.10;37.02;102241.84;5057177;28;45212;-52
2021/12/14 04:14:53;;;;;;;;;2.25;2.25;;;;;21.11;37.18;102243.56;5057309;28;45360;-56
2021/12/14 04:17:22;;;;;;;;;1.75;1.75;;;;;21.08;37.21;102239.25;5056930;28;45383;-56
2021/12/14 04:19:48;;;;;;;;;2.00;2.00;;;;;21.06;36.86;102237.56;5056926;28;45465;-55
2021/12/14 04:22:22;;;;;;;;;2.00;2.00;;;;;21.07;36.79;102248.06;5038899;28;45478;-54
2021/12/14 04:24:54;;;;;;;;;2.25;2.25;;;;;21.07;36.85;102252.47;5057183;28;45336;-56
2021/12/14 04:27:23;;;;;;;;;2.75;2.75;;;;;21.07;36.80;102263.03;5056924;28;45383;-55
2021/12/14 04:29:49;;;;;;;;;3.50;2.00;;;;;21.07;36.92;102278.84;5056708;28;45344;-49
2021/12/14 04:32:17;;;;;;;;;4.00;2.50;;;;;21.05;36.66;102272.75;5056807;28;45325;-51
2021/12/14 04:34:43;;;;;;;;;3.00;3.00;;;;;21.04;37.12;102271.91;5057013;28;45433;-53
2021/12/14 04:37:11;;;;;;;;;2.00;2.00;;;;;21.04;36.84;102276.31;5056809;28;45537;-53
2021/12/14 04:39:43;;;;;;;;;2.50;2.50;;;;;21.03;37.12;102282.50;5056616;28;45454;-52
2021/12/14 04:53:22;;;;;;;;;2.00;1.25;;;;;20.98;37.26;102275.63;5056612;28;45223;-52
2021/12/14 04:55:51;;;;;;;;;3.50;3.00;;;;;20.96;36.94;102266.91;5056803;28;45584;-48
2021/12/14 04:58:28;;;;;;;;;2.25;2.25;;;;;20.95;37.24;102274.84;5056428;28;46807;-45
2021/12/14 05:00:54;;;;;;;;;2.00;2.00;;;;;20.94;37.23;102274.00;5056849;28;45157;-46
2021/12/14 05:03:35;;;;;;;;;2.00;2.00;;;;;20.92;37.01;102274.97;5056473;28;45407;-51
2021/12/14 05:06:15;;;;;;;;;2.25;2.25;;;;;20.92;37.19;102281.09;5038342;28;45489;-52
2021/12/14 05:11:12;;;;;;;;;4.75;3.00;;;;;20.92;37.13;102273.19;5056135;28;45339;-52
2021/12/14 05:13:42;;;;;;;;;3.00;2.25;;;;;20.91;36.98;102282.00;5056331;28;45411;-52
2021/12/14 05:16:15;;;;;;;;;4.25;3.00;;;;;20.90;36.80;102275.00;5056291;28;45545;-54
2021/12/14 05:18:49;;;;;;;;;2.00;2.00;;;;;20.88;37.45;102268.94;5055852;28;45683;-51
2021/12/14 05:21:37;;;;;;;;;3.25;3.25;;;;;20.88;37.32;102284.75;5056104;28;45231;-57
2021/12/14 05:24:05;;;;;;;;;3.75;3.00;;;;;20.87;37.32;102277.75;5038103;28;45414;-52
2021/12/14 05:26:31;;;;;;;;;3.00;2.00;;;;;20.83;37.15;102277.00;5056328;28;45528;-46
2021/12/14 05:28:57;;;;;;;;;2.50;2.00;;;;;20.80;37.21;102273.59;5056077;28;46757;-51
2021/12/14 05:31:22;;;;;;;;;2.00;2.00;;;;;20.82;36.87;102274.41;5055873;28;45375;-56
2021/12/14 05:33:49;;;;;;;;;2.00;2.00;;;;;20.80;36.77;102271.84;5055988;28;45455;-55
2021/12/14 05:36:18;;;;;;;;;4.00;2.25;;;;;20.81;37.42;102277.94;5056155;28;45442;-52
2021/12/14 05:44:01;;;;;;;;;4.25;3.00;;;;;20.79;37.31;102279.78;5056454;28;45268;-50
2021/12/14 05:46:28;;;;;;;;;3.00;3.00;;;;;20.76;37.05;102278.09;5038441;28;45500;-50
2021/12/14 05:49:05;;;;;;;;;4.25;4.25;;;;;20.76;37.26;102278.09;5055787;28;46720;-55
2021/12/14 05:51:32;;;;;;;;;2.00;2.00;;;;;20.77;36.99;102281.63;5021641;28;45325;-53
2021/12/14 05:53:59;;;;;;;;;4.50;4.50;;;;;20.75;36.92;102284.28;5057264;28;45450;-53
2021/12/14 05:56:28;;;;;;;;;4.00;3.00;;;;;20.73;37.00;102279.97;5058013;28;45616;-55
2021/12/14 05:58:54;;;;;;;;;3.00;3.00;;;;;20.73;37.09;102285.22;5058938;28;45473;-56
2021/12/14 06:01:25;;;;;;;;;5.25;4.25;;;;;20.72;37.25;102291.41;5059035;28;45323;-52
2021/12/14 06:03:55;;;;;;;;;7.00;6.75;;;;;20.70;37.39;102297.59;5059360;28;45244;-53
2021/12/14 06:06:33;;;;;;;;;7.25;5.25;;;;;20.67;37.18;102296.81;5059236;28;45455;-53
2021/12/14 06:09:10;;;;;;;;;5.50;4.75;;;;;20.66;37.16;102301.25;5059086;28;47299;-52
2021/12/14 06:11:36;;;;;;;;;6.25;6.25;;;;;20.64;37.04;102297.78;5058919;28;45302;-54
2021/12/14 06:14:03;;;;;;;;;7.00;6.00;;;;;20.63;37.20;102300.47;5041246;28;45205;-50
2021/12/14 06:16:30;;;;;;;;;3.75;3.75;;;;;20.61;36.67;102313.69;5059339;28;45490;-46
2021/12/14 06:19:13;;;;;;;;;16.00;8.50;;;;;20.60;36.76;102326.94;5058387;28;46343;-57
2021/12/14 06:21:39;;;;;;;;;8.50;6.25;;;;;20.58;36.63;102334.84;5058713;28;45818;-50
2021/12/14 06:24:09;;;;;;;;;6.00;6.00;;;;;20.55;36.73;102332.34;5058760;28;45335;-52
2021/12/14 06:26:37;;;;;;;;;9.25;9.25;;;;;20.53;36.35;102350.81;5058938;28;45318;-55
2021/12/14 06:29:13;;;;;;;;;7.75;7.25;;;;;20.50;36.75;102343.03;5058655;28;46180;-51
2021/12/14 06:31:42;;;;;;;;;7.50;6.75;;;;;20.45;36.49;102338.81;5058334;28;45340;-55
2021/12/14 06:34:29;;;;;;;;;7.00;5.25;;;;;20.40;36.38;102341.56;5058709;28;45775;-49
2021/12/14 06:37:03;;;;;;;;;6.50;6.00;;;;;20.37;36.76;102345.16;5040639;28;45607;-56
2021/12/14 06:39:55;;;;;;;;;10.00;8.25;;;;;20.33;36.70;102351.44;5058720;28;46270;-49
2021/12/14 06:42:20;;;;;;;;;6.00;6.00;;;;;20.30;36.46;102342.75;5058333;28;45842;-55
2021/12/14 06:44:46;;;;;;;;;7.25;7.25;;;;;20.27;36.18;102350.75;5058535;28;45454;-57
2021/12/14 06:47:11;;;;;;;;;8.00;6.00;;;;;20.23;36.65;102357.88;5058502;28;45359;-54
2021/12/14 06:49:37;;;;;;;;;8.25;6.75;;;;;20.20;36.54;102358.84;5058131;28;46454;-53
2021/12/14 06:52:03;;;;;;;;;7.75;6.75;;;;;20.18;36.41;102359.78;5058535;28;45422;-48
2021/12/14 06:54:30;;;;;;;;;5.25;5.25;;;;;20.15;36.54;102351.97;5040404;28;45218;-55
2021/12/14 06:56:59;;;;;;;;;7.00;6.00;;;;;20.14;36.27;102356.38;5058364;28;45529;-56
2021/12/14 06:59:26;;;;;;;;;7.50;7.50;;;;;20.12;36.37;102357.34;5058096;28;45430;-53
2021/12/14 07:01:59;;;;;;;;;7.75;7.75;;;;;20.08;36.37;102352.16;5056264;28;45913;-53
2021/12/14 07:04:30;;;;;;;;;7.00;6.00;;;;;20.02;36.43;102365.50;5058358;28;45328;-50
2021/12/14 07:07:04;;;;;;;;;6.50;5.50;;;;;20.02;36.26;102362.00;5058325;28;45466;-54
2021/12/14 07:09:37;;;;;;;;;7.00;7.00;;;;;19.97;36.04;102367.41;5058075;28;47153;-55
2021/12/14 07:12:07;;;;;;;;;8.25;7.00;;;;;19.95;36.28;102361.31;5058026;28;45858;-52
2021/12/14 07:14:42;;;;;;;;;6.25;5.25;;;;;19.93;35.90;102373.66;5058118;28;45328;-52
2021/12/14 07:17:27;;;;;;;;;6.25;5.25;;;;;19.91;35.84;102370.19;5057970;28;45466;-53
2021/12/14 07:19:53;;;;;;;;;6.00;4.00;;;;;19.87;36.07;102363.31;5057530;28;46770;-57
2021/12/14 07:22:25;;;;;;;;;9.00;7.25;;;;;19.85;36.10;102354.56;5057668;28;45474;-53
2021/12/14 07:24:58;;;;;;;;;8.00;8.00;;;;;19.83;36.27;102362.50;5057829;28;45395;-56
2021/12/14 07:27:28;;;;;;;;;8.25;7.00;;;;;19.81;36.00;102360.81;5057908;28;45246;-53
2021/12/14 07:30:27;;;;;;;;;6.50;6.00;;;;;19.78;36.54;102370.53;5057434;28;46542;-56
2021/12/14 07:32:53;;;;;;;;;6.00;5.25;;;;;19.76;36.23;102367.09;4996874;28;45320;-48
2021/12/14 07:35:38;;;;;;;;;10.75;7.00;;;;;19.73;36.75;102369.78;5057113;28;45344;-57
2021/12/14 07:38:10;;;;;;;;;9.00;7.50;;;;;19.73;36.36;102371.56;5057979;28;45555;-55
2021/12/14 07:40:40;;;;;;;;;6.25;6.25;;;;;19.71;36.29;102368.97;5057573;28;45461;-56
2021/12/14 07:43:31;;;;;;;;;7.00;7.00;;;;;19.69;36.37;102364.66;5057622;28;45368;-57
2021/12/14 07:45:58;;;;;;;;;9.00;7.50;;;;;19.67;36.61;102367.34;5057531;28;45319;-53
2021/12/14 07:48:41;;;;;;;;;9.00;8.25;;;;;19.63;36.24;102370.94;5057456;28;45277;-56
2021/12/14 07:51:07;;;;;;;;;6.25;6.25;;;;;19.65;36.42;102379.66;5057582;28;45879;-56
2021/12/14 07:53:40;;;;;;;;;7.00;6.75;;;;;19.64;36.80;102377.94;5057643;28;45397;-50
2021/12/14 07:56:06;;;;;;;;;8.25;8.25;;;;;19.62;36.50;102391.09;5057708;28;45406;-56
2021/12/14 07:58:40;;;;;;;;;10.25;8.25;;;;;19.62;36.26;102395.53;5057533;28;45509;-50
2021/12/14 08:01:08;;;;;;;;;7.50;5.50;;;;;19.60;36.85;102386.81;5057384;28;46197;-54
2021/12/14 08:03:37;;;;;;;;;7.75;7.00;;;;;19.55;36.38;102389.56;5057251;28;45800;-56
2021/12/14 08:06:08;;;;;;;;;8.00;7.25;;;;;19.58;36.22;102397.38;5057135;28;45293;-56
2021/12/14 08:08:45;;;;;;;;;8.50;8.25;;;;;19.55;36.68;102393.97;5057665;28;45662;-56
2021/12/14 08:11:47;;;;;;;;;10.00;8.50;;;;;19.54;36.29;102402.75;5057002;28;46519;-57
2021/12/14 08:14:18;;;;;;;;;10.00;7.50;;;;;19.52;36.46;102417.72;5056928;28;45898;-52
2021/12/14 08:16:52;;;;;;;;;8.25;8.25;;;;;19.49;36.98;102417.78;5056539;28;45422;-55
2021/12/14 08:19:34;;;;;;;;;9.75;9.00;;;;;19.50;36.51;102422.13;5056930;28;45336;-55
2021/12/14 08:22:12;;;;;;;;;7.50;7.50;;;;;19.46;37.01;102416.09;5056688;28;47066;-54
2021/12/14 08:24:46;;;;;;;;;11.25;7.50;;;;;19.48;36.81;102422.19;5038767;28;45892;-55
2021/12/14 08:27:17;;;;;;;;;5.75;5.75;;;;;19.50;36.83;102422.13;5056952;28;45252;-51
2021/12/14 08:29:49;;;;;;;;;7.00;6.00;;;;;19.52;36.86;102426.44;5056925;28;45415;-54
2021/12/14 08:32:20;;;;;;;;;7.00;7.00;;;;;19.54;37.26;102432.53;5056449;28;46543;-52
2021/12/14 08:34:47;;;;;;;;;6.00;6.00;;;;;19.56;37.03;102429.88;5038360;28;45976;-56
2021/12/14 08:37:45;;;;;;;;;7.00;6.00;;;;;19.59;37.57;102427.16;5038473;28;45277;-56
2021/12/14 08:40:20;;;;;;;;;6.25;6.00;;;;;19.61;37.14;102423.59;5053606;28;45880;-53
2021/12/14 08:43:03;;;;;;;;;4.25;4.25;;;;;19.65;37.51;102420.88;5055019;28;46288;-49
2021/12/14 08:45:54;;;;;;;;;4.75;4.75;;;;;19.68;37.11;102426.91;5050009;28;45980;-55
2021/12/14 08:48:36;;;;;;;;;7.00;5.75;;;;;19.69;37.10;102436.53;5030045;28;45386;-46
2021/12/14 08:51:13;;;;;;;;;8.75;6.25;;;;;19.71;37.17;102441.78;5056357;28;45422;-53
2021/12/14 08:53:46;;;;;;;;;7.00;5.00;;;;;19.72;37.66;102444.34;5055969;28;46427;-52
2021/12/14 08:56:13;;;;;;;;;5.00;5.00;;;;;19.73;37.50;102437.34;5055725;28;45739;-51
2021/12/14 08:58:40;;;;;;;;;6.50;6.50;;;;;19.75;37.59;102444.28;5056256;28;45355;-51
2021/12/14 09:01:16;;;;;;;;;6.50;6.00;;;;;19.77;37.06;102450.38;5056017;28;45415;-47
2021/12/14 09:03:54;;;;;;;;;5.75;5.75;;;;;19.76;37.24;102446.00;5055177;28;45482;-52
2021/12/14 09:06:23;;;;;;;;;3.75;3.75;;;;;19.78;37.14;102443.31;5055639;28;45879;-52
2021/12/14 09:08:50;;;;;;;;;4.00;4.00;;;;;19.80;37.38;102431.00;5055585;28;45471;-53
2021/12/14 09:11:21;;;;;;;;;4.00;4.00;;;;;19.81;37.54;102437.09;5056038;28;45339;-54
2021/12/14 09:13:47;;;;;;;;;5.25;5.25;;;;;19.76;37.76;102424.97;5055423;28;45642;-56
2021/12/14 09:16:21;;;;;;;;;6.50;5.50;;;;;19.84;37.13;102432.66;5055604;28;45396;-58
2021/12/14 09:18:54;;;;;;;;;5.00;4.00;;;;;19.83;37.37;102425.66;5037504;28;45375;-54
2021/12/14 09:21:28;;;;;;;;;4.00;4.00;;;;;19.84;37.36;102418.63;5055985;28;45333;-53
2021/12/14 09:23:59;;;;;;;;;5.25;5.25;;;;;19.85;37.49;102431.72;5037367;28;47328;-56
2021/12/14 09:26:28;;;;;;;;;7.00;7.00;;;;;19.87;37.87;102437.84;5037464;28;45787;-56
2021/12/14 09:28:54;;;;;;;;;3.00;3.00;;;;;19.84;37.41;102440.53;5056986;28;45399;-57
2021/12/14 09:31:25;;;;;;;;;5.25;5.00;;;;;19.86;38.10;102441.38;5059209;28;45590;-56
2021/12/14 09:33:55;;;;;;;;;6.00;6.00;;;;;19.88;37.87;102436.09;5059277;28;46605;-58
2021/12/14 09:36:20;;;;;;;;;4.00;4.00;;;;;19.95;38.07;102442.91;5058677;28;45278;-54
2021/12/14 09:38:51;;;;;;;;;7.00;6.00;;;;;19.98;38.18;102440.19;5058988;28;45396;-55
2021/12/14 09:41:22;;;;;;;;;6.50;5.00;;;;;20.01;37.92;102440.09;5059099;28;45402;-57
2021/12/14 09:43:50;;;;;;;;;5.25;4.00;;;;;20.07;37.75;102439.06;5041654;28;45428;-53
2021/12/14 09:46:18;;;;;;;;;4.00;4.00;;;;;20.12;37.91;102446.84;5059001;28;45285;-54
2021/12/14 09:48:51;;;;;;;;;4.00;4.00;;;;;20.17;38.46;102450.19;5059157;28;45430;-56
2021/12/14 09:51:23;;;;;;;;;3.75;3.75;;;;;20.24;37.72;102457.00;5041092;28;45421;-57
2021/12/14 09:53:52;;;;;;;;;4.00;4.00;;;;;20.32;37.92;102456.78;5058970;28;45362;-58
2021/12/14 09:56:20;;;;;;;;;3.50;3.50;;;;;20.36;37.80;102459.28;5058781;28;45256;-53
2021/12/14 09:58:50;;;;;;;;;5.00;5.00;;;;;20.43;37.96;102461.75;5058988;28;45752;-57
2021/12/14 10:01:24;;;;;;;;;7.00;5.00;;;;;20.47;37.75;102466.03;5040981;28;45461;-56
2021/12/14 10:03:53;;;;;;;;;4.00;4.00;;;;;20.51;38.04;102467.66;5058728;28;45587;-56
2021/12/14 10:06:24;;;;;;;;;5.00;5.00;;;;;20.59;37.49;102470.94;5055782;28;46044;-54
2021/12/14 10:08:58;;;;;;;;;5.00;5.00;;;;;20.61;37.73;102468.28;5038331;28;45367;-51
2021/12/14 10:12:01;;;;;;;;;5.75;5.00;;;;;20.65;37.65;102470.75;5056401;28;45348;-48
2021/12/14 10:14:40;;;;;;;;;5.00;5.00;;;;;20.70;37.93;102460.94;5058141;28;45334;-53
2021/12/14 10:17:10;;;;;;;;;6.50;6.00;;;;;20.73;37.40;102453.84;5057428;28;45711;-49
2021/12/14 10:19:37;;;;;;;;;5.00;5.00;;;;;20.77;37.34;102458.16;5040246;28;45493;-58
2021/12/14 10:22:13;;;;;;;;;5.00;5.00;;;;;20.80;37.81;102460.69;5058373;28;45535;-59
2021/12/14 10:24:39;;;;;;;;;5.00;5.00;;;;;20.84;37.53;102457.06;5058354;28;47533;-57
2021/12/14 10:27:11;;;;;;;;;5.50;4.50;;;;;20.83;37.84;102456.19;5058294;28;45405;-58
2021/12/14 10:29:37;;;;;;;;;6.00;5.25;;;;;20.84;37.24;102462.31;5058513;28;45426;-57
2021/12/14 10:32:08;;;;;;;;;5.25;5.00;;;;;20.87;37.54;102470.16;5058468;28;45497;-57
2021/12/14 10:34:40;;;;;;;;;7.00;5.00;;;;;20.86;37.29;102465.78;5058430;28;45426;-56
2021/12/14 10:43:17;;;;;;;;;7.50;5.25;;;;;20.87;37.14;102466.63;5058837;28;45186;-57
2021/12/14 10:45:52;;;;;;;;;6.50;5.50;;;;;20.87;37.39;102467.50;5058123;28;46206;-57
2021/12/14 10:48:20;;;;;;;;;5.50;5.25;;;;;20.85;37.35;102469.31;5058126;28;45328;-53
2021/12/14 10:50:49;;;;;;;;;6.50;5.25;;;;;20.87;37.52;102462.25;5058234;28;45421;-54
2021/12/14 10:53:15;;;;;;;;;7.00;5.00;;;;;20.89;37.20;102473.56;5040464;28;45385;-54
2021/12/14 10:55:50;;;;;;;;;7.00;5.00;;;;;20.88;37.19;102471.88;5057794;28;45381;-50
2021/12/14 10:58:18;;;;;;;;;6.00;5.00;;;;;20.87;37.00;102475.41;5057601;28;45356;-51
2021/12/14 11:01:04;;;;;;;;;6.75;6.75;;;;;20.88;37.68;102469.25;5058005;28;45475;-54
2021/12/14 11:03:35;;;;;;;;;8.75;6.00;;;;;20.86;37.15;102460.50;5058095;28;45441;-53
2021/12/14 11:06:06;;;;;;;;;6.50;6.50;;;;;20.86;37.42;102468.41;5057704;28;46482;-52
2021/12/14 11:08:47;;;;;;;;;7.25;7.25;;;;;20.88;37.31;102471.88;5057567;28;45359;-57
2021/12/14 11:11:32;;;;;;;;;7.50;6.25;;;;;20.89;37.46;102470.09;5057792;28;45340;-56
2021/12/14 11:14:01;;;;;;;;;8.00;6.75;;;;;20.88;37.45;102463.97;5058016;28;45427;-56
2021/12/14 11:18:08;;;;;;;;;9.00;6.25;;;;;20.88;37.45;102466.59;5057237;28;46425;-57
2021/12/14 11:19:19;;;;;;;;;6.50;5.25;;;;;20.87;36.68;102456.09;5057205;28;45447;-54
2021/12/14 11:21:45;;;;;;;;;5.50;5.50;;;;;20.85;37.08;102454.34;5058000;28;45872;-52
2021/12/14 11:24:11;;;;;;;;;6.75;6.00;;;;;20.86;37.02;102449.97;5057969;28;45542;-57
2021/12/14 11:26:36;;;;;;;;;7.50;5.50;;;;;20.85;37.28;102448.25;5057217;28;46314;-54
2021/12/14 11:29:09;;;;;;;;;6.00;6.00;;;;;20.85;37.14;102464.06;5057308;28;45426;-49
2021/12/14 11:31:41;;;;;;;;;7.75;7.00;;;;;20.84;37.14;102463.16;5057320;28;45379;-53
2021/12/14 11:34:12;;;;;;;;;6.25;6.25;;;;;20.82;37.37;102457.09;5057691;28;45334;-50
2021/12/14 11:36:58;;;;;;;;;5.00;5.00;;;;;20.83;36.97;102465.88;5057198;28;45586;-56
2021/12/14 11:39:29;;;;;;;;;10.00;7.00;;;;;20.82;37.16;102456.22;5057425;28;45508;-55
2021/12/14 11:42:01;;;;;;;;;6.75;5.50;;;;;20.81;36.89;102451.88;5057330;28;45421;-56
2021/12/14 11:44:36;;;;;;;;;9.50;7.00;;;;;20.79;37.13;102449.28;5057423;28;45619;-52
2021/12/14 11:50:03;;;;;;;;;6.00;6.00;;;;;20.79;37.23;102440.50;5056882;28;45343;-54
2021/12/14 11:52:31;;;;;;;;;6.50;6.50;;;;;20.79;37.39;102443.13;5056319;28;45468;-55
2021/12/14 11:54:57;;;;;;;;;8.25;6.25;;;;;20.77;36.96;102439.72;5057338;28;45419;-56
2021/12/14 11:57:31;;;;;;;;;6.25;6.25;;;;;20.72;37.55;102433.69;5038668;28;45945;-57
2021/12/14 12:00:07;;;;;;;;;7.25;6.25;;;;;20.75;37.44;102434.47;5057188;28;45459;-54
2021/12/14 12:02:33;;;;;;;;;7.25;6.75;;;;;20.75;37.07;102437.09;5056802;28;45273;-48
2021/12/14 12:04:58;;;;;;;;;7.50;7.00;;;;;20.73;37.45;102428.34;5039160;28;45614;-55
2021/12/14 12:10:09;;;;;;;;;6.75;6.75;;;;;20.74;37.44;102429.22;5057099;28;45360;-53
2021/12/14 12:12:41;;;;;;;;;5.00;5.00;;;;;20.72;37.45;102425.78;5056816;28;45526;-49
2021/12/14 12:15:16;;;;;;;;;6.75;6.00;;;;;20.72;37.03;102420.50;5056951;28;45424;-49
2021/12/14 12:17:51;;;;;;;;;6.75;6.00;;;;;20.70;37.48;102421.41;5056233;28;45851;-50
2021/12/14 12:20:29;;;;;;;;;6.25;6.25;;;;;20.69;37.31;102417.06;5056972;28;45750;-47
2021/12/14 12:22:58;;;;;;;;;7.50;7.00;;;;;20.67;37.56;102418.00;5056991;28;45418;-53